createdAt,value
2022-10-18T00:01:00.787Z,16.33
2022-10-18T00:03:39.439Z,16.30
2022-10-18T00:06:09.294Z,16.28
2022-10-18T00:08:38.820Z,16.24
2022-10-18T00:11:06.636Z,16.19
2022-10-18T00:13:34.427Z,16.14
2022-10-18T00:16:05.001Z,16.10
2022-10-18T00:18:32.869Z,16.08
2022-10-18T00:21:06.771Z,16.07
2022-10-18T00:23:35.414Z,16.06
2022-10-18T00:26:08.635Z,16.08
2022-10-18T00:28:36.822Z,16.07
2022-10-18T00:31:17.880Z,16.05
2022-10-18T00:33:47.084Z,16.02
2022-10-18T00:36:14.750Z,16.00
2022-10-18T00:38:43.122Z,15.94
2022-10-18T00:41:14.404Z,15.87
2022-10-18T00:44:10.229Z,15.78
2022-10-18T00:46:43.786Z,15.70
2022-10-18T00:49:15.495Z,15.63
2022-10-18T00:51:46.801Z,15.56
2022-10-18T00:54:16.361Z,15.52
2022-10-18T00:56:44.913Z,15.47
2022-10-18T00:59:15.743Z,15.41
2022-10-18T01:01:43.891Z,15.35
2022-10-18T01:04:13.846Z,15.31
2022-10-18T01:07:18.246Z,15.29
2022-10-18T01:10:00.612Z,15.22
2022-10-18T01:12:34.202Z,15.21
2022-10-18T01:15:20.293Z,15.24
2022-10-18T01:18:12.210Z,15.25
2022-10-18T01:20:54.885Z,15.22
2022-10-18T01:23:47.402Z,15.22
2022-10-18T01:26:33.434Z,15.21
2022-10-18T01:29:29.976Z,15.19
2022-10-18T01:32:01.739Z,15.16
2022-10-18T01:34:33.975Z,15.12
2022-10-18T01:37:04.912Z,15.08
2022-10-18T01:39:36.756Z,15.06
2022-10-18T01:42:10.409Z,15.04
2022-10-18T01:44:40.967Z,15.02
2022-10-18T01:47:12.326Z,14.99
2022-10-18T01:49:39.879Z,14.98
2022-10-18T01:52:16.123Z,14.94
2022-10-18T01:54:49.089Z,14.90
2022-10-18T01:57:34.753Z,14.86
2022-10-18T02:00:16.339Z,14.84
2022-10-18T02:02:49.804Z,14.87
2022-10-18T02:05:40.318Z,14.88
2022-10-18T02:08:31.119Z,14.89
2022-10-18T02:11:10.706Z,14.83
2022-10-18T02:13:57.973Z,14.81
2022-10-18T02:16:34.664Z,14.78
2022-10-18T02:19:15.786Z,14.75
2022-10-18T02:21:45.511Z,14.70
2022-10-18T02:24:15.281Z,14.66
2022-10-18T02:26:43.414Z,14.63
2022-10-18T02:29:11.452Z,14.60
2022-10-18T02:31:48.661Z,14.57
2022-10-18T02:34:23.852Z,14.55
2022-10-18T02:36:55.040Z,14.54
2022-10-18T02:39:30.413Z,14.55
2022-10-18T02:41:59.541Z,14.55
2022-10-18T02:44:27.122Z,14.58
2022-10-18T02:46:54.703Z,14.65
2022-10-18T02:49:22.480Z,14.70
2022-10-18T02:51:49.962Z,14.76
2022-10-18T02:54:17.441Z,14.82
2022-10-18T02:56:45.065Z,14.83
2022-10-18T02:59:12.814Z,14.85
2022-10-18T03:01:40.516Z,14.88
2022-10-18T03:04:08.413Z,14.87
2022-10-18T03:06:35.936Z,14.87
2022-10-18T03:09:05.095Z,14.85
2022-10-18T03:11:33.337Z,14.82
2022-10-18T03:14:00.878Z,14.81
2022-10-18T03:16:28.798Z,14.78
2022-10-18T03:18:56.285Z,14.75
2022-10-18T03:21:23.895Z,14.72
2022-10-18T03:23:51.460Z,14.67
2022-10-18T03:26:19.029Z,14.68
2022-10-18T03:28:46.599Z,14.65
2022-10-18T03:31:14.167Z,14.59
2022-10-18T03:33:41.736Z,14.56
2022-10-18T03:36:12.148Z,14.54
2022-10-18T03:38:39.675Z,14.49
2022-10-18T03:41:07.192Z,14.47
2022-10-18T03:43:34.864Z,14.46
2022-10-18T03:46:02.442Z,14.46
2022-10-18T03:48:29.989Z,14.47
2022-10-18T03:50:57.552Z,14.45
2022-10-18T03:53:25.183Z,14.41
2022-10-18T03:55:54.277Z,14.41
2022-10-18T03:58:22.805Z,14.36
2022-10-18T04:00:51.955Z,14.35
2022-10-18T04:03:21.312Z,14.31
2022-10-18T04:05:49.740Z,14.27
2022-10-18T04:08:18.354Z,14.23
2022-10-18T04:10:46.465Z,14.17
2022-10-18T04:13:14.175Z,14.14
2022-10-18T04:15:41.813Z,14.10
2022-10-18T04:18:09.515Z,14.08
2022-10-18T04:20:37.124Z,14.04
2022-10-18T04:23:04.684Z,14.02
2022-10-18T04:25:32.348Z,14.03
2022-10-18T04:27:59.894Z,14.05
2022-10-18T04:30:27.425Z,14.07
2022-10-18T04:32:54.950Z,14.09
2022-10-18T04:35:24.587Z,14.08
2022-10-18T04:37:52.238Z,14.03
2022-10-18T04:40:20.100Z,14.00
2022-10-18T04:42:47.792Z,13.99
2022-10-18T04:45:15.393Z,13.98
2022-10-18T04:47:42.904Z,13.95
2022-10-18T04:50:10.478Z,13.91
2022-10-18T04:52:38.149Z,13.88
2022-10-18T04:55:06.297Z,13.83
2022-10-18T04:57:34.239Z,13.81
2022-10-18T05:00:02.212Z,13.77
2022-10-18T05:02:30.228Z,13.77
2022-10-18T05:04:58.131Z,13.79
2022-10-18T05:07:25.729Z,13.81
2022-10-18T05:09:53.324Z,13.81
2022-10-18T05:12:20.905Z,13.83
2022-10-18T05:14:48.736Z,13.84
2022-10-18T05:17:16.686Z,13.84
2022-10-18T05:19:44.202Z,13.84
2022-10-18T05:22:11.782Z,13.83
2022-10-18T05:24:39.339Z,13.83
2022-10-18T05:27:06.987Z,13.82
2022-10-18T05:29:34.566Z,13.80
2022-10-18T05:32:02.138Z,13.80
2022-10-18T05:34:32.037Z,13.77
2022-10-18T05:36:59.918Z,13.76
2022-10-18T05:39:27.552Z,13.78
2022-10-18T05:41:55.134Z,13.84
2022-10-18T05:44:22.629Z,13.89
2022-10-18T05:46:50.148Z,13.96
2022-10-18T05:49:17.883Z,14.01
2022-10-18T05:51:45.436Z,14.07
2022-10-18T05:54:13.547Z,14.09
2022-10-18T05:56:41.233Z,14.13
2022-10-18T05:59:12.494Z,14.18
2022-10-18T06:01:42.185Z,14.23
2022-10-18T06:04:10.306Z,14.27
2022-10-18T06:06:38.951Z,14.31
2022-10-18T06:09:08.525Z,14.37
2022-10-18T06:11:37.026Z,14.46
2022-10-18T06:14:05.142Z,14.57
2022-10-18T06:16:33.027Z,14.72
2022-10-18T06:19:00.686Z,14.89
2022-10-18T06:21:28.277Z,15.05
2022-10-18T06:23:58.015Z,15.18
2022-10-18T06:26:27.326Z,15.27
2022-10-18T06:28:55.093Z,15.38
2022-10-18T06:31:23.100Z,15.46
2022-10-18T06:33:50.836Z,15.57
2022-10-18T06:36:23.945Z,15.68
2022-10-18T06:38:52.529Z,15.79
2022-10-18T06:41:20.487Z,15.86
2022-10-18T06:43:53.773Z,15.91
2022-10-18T06:46:21.340Z,15.93
2022-10-18T06:48:49.078Z,16.04
2022-10-18T06:51:18.224Z,16.13
2022-10-18T06:53:59.214Z,16.22
2022-10-18T06:56:33.851Z,16.35
2022-10-18T06:59:02.129Z,16.48
2022-10-18T07:01:30.046Z,16.61
2022-10-18T07:03:57.678Z,16.74
2022-10-18T07:06:25.566Z,16.86
2022-10-18T07:08:54.096Z,16.97
2022-10-18T07:11:25.105Z,17.07
2022-10-18T07:14:00.837Z,17.20
2022-10-18T07:16:29.226Z,17.30
2022-10-18T07:18:57.313Z,17.39
2022-10-18T07:21:26.622Z,17.44
2022-10-18T07:23:56.203Z,17.53
2022-10-18T07:26:29.041Z,17.54
2022-10-18T07:29:00.490Z,17.62
2022-10-18T07:31:29.048Z,17.73
2022-10-18T07:33:56.647Z,17.80
2022-10-18T07:36:25.538Z,17.84
2022-10-18T07:38:53.222Z,17.89
2022-10-18T07:41:21.636Z,17.99
2022-10-18T07:43:51.306Z,18.12
2022-10-18T07:46:20.776Z,18.29
2022-10-18T07:48:48.793Z,18.46
2022-10-18T07:51:17.950Z,18.69
2022-10-18T07:53:46.012Z,18.92
2022-10-18T07:56:16.469Z,19.09
2022-10-18T07:58:45.442Z,19.32
2022-10-18T08:01:14.418Z,19.57
2022-10-18T08:03:42.927Z,19.91
2022-10-18T08:06:12.946Z,20.27
2022-10-18T08:08:41.197Z,20.54
2022-10-18T08:11:17.638Z,20.76
2022-10-18T08:13:45.410Z,21.02
2022-10-18T08:16:16.619Z,21.32
2022-10-18T08:18:44.277Z,21.58
2022-10-18T08:21:12.935Z,21.83
2022-10-18T08:23:40.949Z,22.02
2022-10-18T08:26:14.055Z,22.21
2022-10-18T08:28:49.156Z,22.45
2022-10-18T08:31:26.046Z,22.65
2022-10-18T08:33:56.912Z,22.67
2022-10-18T08:36:24.811Z,22.63
2022-10-18T08:38:52.448Z,22.45
2022-10-18T08:41:49.564Z,22.33
2022-10-18T08:44:28.465Z,22.31
2022-10-18T08:47:02.632Z,22.42
2022-10-18T08:49:41.778Z,22.80
2022-10-18T08:52:58.407Z,23.09
2022-10-18T08:55:53.002Z,23.28
2022-10-18T08:58:26.687Z,23.62
2022-10-18T09:01:23.392Z,23.86
2022-10-18T09:03:56.787Z,24.15
2022-10-18T09:06:35.947Z,24.38
2022-10-18T09:09:21.235Z,24.49
2022-10-18T09:12:07.164Z,24.69
2022-10-18T09:14:49.697Z,24.76
2022-10-18T09:17:58.875Z,24.81
2022-10-18T09:20:45.259Z,24.83
2022-10-18T09:23:20.419Z,24.91
2022-10-18T09:25:53.822Z,24.80
2022-10-18T09:28:57.332Z,24.92
2022-10-18T09:31:30.883Z,25.27
2022-10-18T09:34:05.848Z,25.52
2022-10-18T09:36:35.648Z,25.81
2022-10-18T09:39:13.517Z,25.76
2022-10-18T09:41:47.505Z,25.81
2022-10-18T09:44:36.149Z,26.18
2022-10-18T09:47:16.488Z,26.54
2022-10-18T09:49:49.445Z,26.75
2022-10-18T09:52:26.669Z,26.62
2022-10-18T09:54:58.145Z,26.08
2022-10-18T09:57:38.230Z,25.75
2022-10-18T10:00:17.067Z,25.45
2022-10-18T10:02:44.713Z,25.40
2022-10-18T10:05:14.370Z,25.46
2022-10-18T10:07:44.993Z,25.69
2022-10-18T10:10:20.114Z,26.07
2022-10-18T10:12:49.046Z,26.22
2022-10-18T10:15:29.561Z,26.27
2022-10-18T10:18:04.939Z,26.20
2022-10-18T10:20:45.728Z,26.36
2022-10-18T10:23:20.506Z,26.51
2022-10-18T10:26:01.354Z,26.68
2022-10-18T10:28:35.019Z,26.80
2022-10-18T10:31:38.030Z,26.84
2022-10-18T10:34:06.807Z,26.54
2022-10-18T10:36:35.148Z,26.60
2022-10-18T10:39:18.631Z,26.59
2022-10-18T10:41:48.965Z,26.56
2022-10-18T10:44:19.662Z,26.72
2022-10-18T10:46:49.689Z,26.88
2022-10-18T10:52:26.875Z,27.20
2022-10-18T10:57:48.406Z,27.14
2022-10-18T11:00:34.201Z,27.11
2022-10-18T11:03:31.215Z,26.99
2022-10-18T11:06:00.975Z,26.82
2022-10-18T11:08:35.892Z,26.61
2022-10-18T11:11:28.400Z,26.41
2022-10-18T11:14:26.168Z,26.30
2022-10-18T11:17:07.903Z,26.13
2022-10-18T11:20:07.355Z,26.08
2022-10-18T11:23:03.612Z,26.01
2022-10-18T11:25:46.250Z,25.89
2022-10-18T11:28:36.074Z,25.82
2022-10-18T11:31:31.770Z,25.62
2022-10-18T11:34:27.217Z,25.14
2022-10-18T11:37:32.328Z,24.80
2022-10-18T11:40:29.671Z,24.64
2022-10-18T11:43:15.342Z,24.22
2022-10-18T11:46:06.966Z,23.90
2022-10-18T11:49:25.809Z,23.70
2022-10-18T11:52:35.267Z,23.49
2022-10-18T11:55:28.899Z,23.48
2022-10-18T11:58:06.857Z,23.50
2022-10-18T12:00:50.409Z,23.44
2022-10-18T12:03:52.957Z,23.41
2022-10-18T12:06:34.060Z,23.32
2022-10-18T12:09:08.189Z,23.25
2022-10-18T12:11:46.977Z,23.15
2022-10-18T12:14:38.144Z,22.98
2022-10-18T12:17:42.804Z,22.74
2022-10-18T12:20:23.180Z,22.59
2022-10-18T12:23:01.250Z,22.51
2022-10-18T12:25:32.421Z,22.31
2022-10-18T12:28:16.259Z,22.18
2022-10-18T12:31:07.092Z,22.11
2022-10-18T12:33:40.068Z,21.97
2022-10-18T12:36:35.104Z,21.83
2022-10-18T12:39:06.906Z,21.72
2022-10-18T12:41:35.851Z,21.63
2022-10-18T12:44:05.866Z,21.61
2022-10-18T12:46:47.211Z,21.57
2022-10-18T12:49:17.372Z,21.51
2022-10-18T12:51:59.385Z,21.46
2022-10-18T12:54:32.861Z,21.47
2022-10-18T12:57:02.356Z,21.41
2022-10-18T12:59:30.033Z,21.37
2022-10-18T13:02:00.609Z,21.34
2022-10-18T13:04:28.222Z,21.27
2022-10-18T13:06:59.355Z,21.20
2022-10-18T13:09:29.747Z,21.22
2022-10-18T13:12:09.664Z,21.24
2022-10-18T13:15:07.325Z,21.27
2022-10-18T13:17:58.045Z,21.18
2022-10-18T13:20:58.016Z,21.11
2022-10-18T13:23:38.272Z,21.10
2022-10-18T13:26:14.960Z,21.07
2022-10-18T13:28:54.534Z,21.04
2022-10-18T13:32:19.242Z,21.00
2022-10-18T13:34:46.892Z,20.93
2022-10-18T13:37:15.540Z,20.93
2022-10-18T13:39:43.469Z,20.89
2022-10-18T13:42:13.895Z,20.87
2022-10-18T13:44:44.738Z,20.87
2022-10-18T13:47:15.377Z,20.89
2022-10-18T13:50:12.291Z,20.89
2022-10-18T13:53:01.575Z,20.89
2022-10-18T13:55:38.210Z,20.89
2022-10-18T13:58:34.876Z,20.86
2022-10-18T14:01:23.267Z,20.86
2022-10-18T14:04:29.961Z,20.83
2022-10-18T14:07:03.725Z,20.78
2022-10-18T14:09:44.775Z,20.76
2022-10-18T14:12:37.804Z,20.69
2022-10-18T14:15:16.851Z,20.64
2022-10-18T14:17:56.764Z,20.60
2022-10-18T14:20:49.482Z,20.49
2022-10-18T14:23:29.799Z,20.42
2022-10-18T14:26:14.958Z,20.33
2022-10-18T14:29:00.252Z,20.26
2022-10-18T14:31:28.307Z,20.19
2022-10-18T14:33:58.573Z,20.13
2022-10-18T14:36:41.089Z,20.05
2022-10-18T14:39:22.571Z,19.95
2022-10-18T14:41:51.537Z,19.85
2022-10-18T14:44:24.453Z,19.77
2022-10-18T14:47:24.739Z,19.69
2022-10-18T14:49:57.891Z,19.56
2022-10-18T14:52:35.087Z,19.49
2022-10-18T14:55:03.478Z,19.42
2022-10-18T14:57:37.382Z,19.36
2022-10-18T15:00:09.405Z,19.26
2022-10-18T15:02:38.866Z,19.20
2022-10-18T15:05:17.288Z,19.15
2022-10-18T15:07:45.406Z,19.09
2022-10-18T15:10:25.434Z,19.05
2022-10-18T15:13:10.485Z,19.00
2022-10-18T15:15:39.935Z,18.95
2022-10-18T15:18:22.788Z,18.92
2022-10-18T15:21:23.277Z,18.87
2022-10-18T15:23:51.954Z,18.84
2022-10-18T15:26:26.706Z,18.81
2022-10-18T15:28:56.589Z,18.79
2022-10-18T15:31:28.830Z,18.78
2022-10-18T15:34:26.089Z,18.79
2022-10-18T15:36:57.145Z,18.82
2022-10-18T15:39:27.754Z,18.83
2022-10-18T15:41:56.304Z,18.77
2022-10-18T15:44:31.845Z,18.67
2022-10-18T15:47:20.952Z,18.54
2022-10-18T15:49:51.072Z,18.39
2022-10-18T15:52:21.333Z,18.23
2022-10-18T15:57:24.018Z,17.75
2022-10-18T16:00:00.598Z,17.53
2022-10-18T16:02:28.681Z,17.25
2022-10-18T16:05:03.015Z,17.01
2022-10-18T16:07:31.091Z,16.74
2022-10-18T16:09:58.853Z,16.56
2022-10-18T16:12:26.626Z,16.30
2022-10-18T16:14:54.278Z,16.08
2022-10-18T16:17:21.923Z,15.80
2022-10-18T16:19:49.550Z,15.54
2022-10-18T16:22:17.282Z,15.36
2022-10-18T16:24:44.922Z,15.27
2022-10-18T16:27:14.592Z,15.13
2022-10-18T16:29:42.251Z,15.01
2022-10-18T16:32:09.778Z,14.91
2022-10-18T16:34:37.527Z,14.86
2022-10-18T16:37:05.151Z,14.85
2022-10-18T16:39:34.916Z,14.81
2022-10-18T16:42:02.765Z,14.78
2022-10-18T16:44:30.505Z,14.76
2022-10-18T16:46:58.017Z,14.71
2022-10-18T16:49:26.750Z,14.63
2022-10-18T16:51:55.280Z,14.56
2022-10-18T16:54:23.559Z,14.50
2022-10-18T16:56:51.589Z,14.47
2022-10-18T16:59:26.299Z,14.45
2022-10-18T17:01:54.101Z,14.45
2022-10-18T17:04:22.814Z,14.44
2022-10-18T17:06:54.274Z,14.41
2022-10-18T17:09:21.888Z,14.38
2022-10-18T17:11:49.804Z,14.37
2022-10-18T17:14:17.349Z,14.35
2022-10-18T17:16:47.074Z,14.38
2022-10-18T17:19:18.310Z,14.41
2022-10-18T17:21:45.887Z,14.40
2022-10-18T17:24:13.586Z,14.42
2022-10-18T17:26:41.122Z,14.36
2022-10-18T17:29:09.011Z,14.30
2022-10-18T17:31:36.914Z,14.27
2022-10-18T17:34:05.114Z,14.32
2022-10-18T17:36:33.885Z,14.34
2022-10-18T17:39:02.347Z,14.28
2022-10-18T17:41:30.580Z,14.22
2022-10-18T17:43:58.217Z,14.20
2022-10-18T17:46:26.050Z,14.19
2022-10-18T17:48:53.697Z,14.15
2022-10-18T17:51:22.013Z,14.03
2022-10-18T17:53:49.982Z,13.95
2022-10-18T17:56:17.490Z,13.91
2022-10-18T17:58:46.791Z,13.83
2022-10-18T18:01:18.729Z,13.74
2022-10-18T18:03:49.934Z,13.70
2022-10-18T18:06:21.125Z,13.66
2022-10-18T18:08:49.918Z,13.64
2022-10-18T18:11:17.878Z,13.59
2022-10-18T18:13:45.524Z,13.55
2022-10-18T18:16:14.067Z,13.55
2022-10-18T18:18:42.597Z,13.52
2022-10-18T18:21:10.496Z,13.49
2022-10-18T18:23:38.177Z,13.49
2022-10-18T18:26:06.131Z,13.48
2022-10-18T18:28:35.966Z,13.50
2022-10-18T18:31:19.500Z,13.44
2022-10-18T18:33:47.100Z,13.40
2022-10-18T18:36:14.797Z,13.41
2022-10-18T18:38:45.342Z,13.43
2022-10-18T18:41:18.732Z,13.44
2022-10-18T18:43:51.296Z,13.50
2022-10-18T18:46:18.931Z,13.55
2022-10-18T18:48:46.500Z,13.57
2022-10-18T18:51:16.770Z,13.52
2022-10-18T18:53:45.817Z,13.47
2022-10-18T18:56:17.490Z,13.51
2022-10-18T18:58:46.399Z,13.57
2022-10-18T19:01:17.447Z,13.56
2022-10-18T19:03:47.517Z,13.44
2022-10-18T19:06:18.781Z,13.41
2022-10-18T19:08:48.504Z,13.36
2022-10-18T19:11:22.466Z,13.36
2022-10-18T19:13:50.315Z,13.37
2022-10-18T19:16:31.960Z,13.37
2022-10-18T19:19:07.042Z,13.39
2022-10-18T19:21:46.538Z,13.40
2022-10-18T19:24:14.167Z,13.41
2022-10-18T19:26:45.390Z,13.35
2022-10-18T19:29:21.265Z,13.35
2022-10-18T19:31:50.248Z,13.37
2022-10-18T19:34:19.523Z,13.37
2022-10-18T19:36:48.783Z,13.38
2022-10-18T19:39:20.828Z,13.38
2022-10-18T19:41:50.654Z,13.35
2022-10-18T19:44:20.126Z,13.32
2022-10-18T19:46:48.663Z,13.33
2022-10-18T19:49:16.827Z,13.33
2022-10-18T19:51:44.813Z,13.34
2022-10-18T19:54:15.116Z,13.35
2022-10-18T19:56:43.090Z,13.37
2022-10-18T19:59:12.212Z,13.34
2022-10-18T20:01:39.953Z,13.35
2022-10-18T20:04:09.448Z,13.38
2022-10-18T20:06:38.407Z,13.38
2022-10-18T20:09:07.833Z,13.40
2022-10-18T20:11:37.135Z,13.39
2022-10-18T20:14:09.517Z,13.42
2022-10-18T20:16:37.720Z,13.40
2022-10-18T20:19:07.534Z,13.42
2022-10-18T20:21:36.412Z,13.49
2022-10-18T20:24:05.703Z,13.53
2022-10-18T20:26:33.716Z,13.61
2022-10-18T20:29:01.634Z,13.66
2022-10-18T20:31:31.257Z,13.71
2022-10-18T20:34:02.534Z,13.75
2022-10-18T20:36:31.828Z,13.79
2022-10-18T20:38:59.415Z,13.84
2022-10-18T20:41:30.947Z,13.86
2022-10-18T20:44:01.370Z,13.85
2022-10-18T20:46:33.943Z,13.85
2022-10-18T20:49:02.053Z,13.83
2022-10-18T20:51:29.942Z,13.78
2022-10-18T20:53:57.683Z,13.75
2022-10-18T20:56:28.907Z,13.69
2022-10-18T20:58:58.169Z,13.64
2022-10-18T21:01:28.643Z,13.63
2022-10-18T21:03:58.168Z,13.63
2022-10-18T21:06:31.247Z,13.63
2022-10-18T21:09:01.423Z,13.68
2022-10-18T21:11:31.724Z,13.69
2022-10-18T21:14:02.610Z,13.69
2022-10-18T21:16:31.908Z,13.72
2022-10-18T21:19:06.726Z,13.73
2022-10-18T21:21:35.113Z,13.75
2022-10-18T21:24:06.946Z,13.76
2022-10-18T21:26:36.345Z,13.78
2022-10-18T21:29:05.324Z,13.79
2022-10-18T21:31:35.391Z,13.79
2022-10-18T21:34:18.023Z,13.76
2022-10-18T21:36:47.471Z,13.68
2022-10-18T21:39:18.058Z,13.68
2022-10-18T21:41:46.229Z,13.70
2022-10-18T21:44:15.372Z,13.70
2022-10-18T21:46:43.160Z,13.64
2022-10-18T21:49:11.758Z,13.61
2022-10-18T21:51:40.063Z,13.60
2022-10-18T21:54:12.014Z,13.61
2022-10-18T21:56:39.970Z,13.63
2022-10-18T21:59:07.746Z,13.62
2022-10-18T22:01:37.232Z,13.62
2022-10-18T22:04:07.705Z,13.63
2022-10-18T22:06:36.379Z,13.59
2022-10-18T22:09:08.196Z,13.59
2022-10-18T22:11:40.294Z,13.61
2022-10-18T22:14:08.137Z,13.61
2022-10-18T22:16:35.998Z,13.63
2022-10-18T22:24:24.750Z,13.59
2022-10-18T22:26:52.380Z,13.58
2022-10-18T22:29:21.269Z,13.60
2022-10-18T22:31:53.805Z,13.62
2022-10-18T22:34:29.085Z,13.60
2022-10-18T22:36:57.041Z,13.64
2022-10-18T22:39:25.249Z,13.65
2022-10-18T22:41:55.912Z,13.61
2022-10-18T22:44:24.364Z,13.59
2022-10-18T22:46:51.922Z,13.56
2022-10-18T22:49:19.413Z,13.57
2022-10-18T22:51:46.966Z,13.52
2022-10-18T22:54:14.749Z,13.50
2022-10-18T22:56:42.320Z,13.46
2022-10-18T22:59:09.841Z,13.42
2022-10-18T23:01:37.838Z,13.35
2022-10-18T23:04:05.363Z,13.27
2022-10-18T23:06:35.800Z,13.27
2022-10-18T23:09:06.327Z,13.22
2022-10-18T23:11:35.322Z,13.17
2022-10-18T23:14:05.046Z,13.12
2022-10-18T23:16:32.648Z,13.04
2022-10-18T23:19:00.220Z,13.03
2022-10-18T23:21:28.771Z,12.97
2022-10-18T23:23:57.007Z,12.94
2022-10-18T23:26:27.028Z,12.94
2022-10-18T23:28:55.127Z,13.02
2022-10-18T23:31:28.625Z,13.05
2022-10-18T23:33:58.566Z,13.00
2022-10-18T23:36:27.254Z,12.97
2022-10-18T23:38:55.423Z,12.97
2022-10-18T23:41:23.364Z,12.92
2022-10-18T23:43:51.209Z,12.90
2022-10-18T23:46:19.403Z,12.89
2022-10-18T23:48:48.193Z,12.84
2022-10-18T23:51:17.661Z,12.83
2022-10-18T23:53:45.559Z,12.81
2022-10-18T23:56:15.639Z,12.79
2022-10-18T23:58:44.380Z,12.77
